Погода Дарбазана неделю

Южно-Казахстанская область, Казахстан

22 - 28 июля
  • 22июля
    Сегодня
    +24°
    +39°
    Ясно и безоблачно
    ВремяПогодаТемператураВлажностьДавлениеВетер, м/сВероятность осадков
    02:00Ясно и безоблачно+25°C34 %717 мм2.1 м/с2 %
    05:00Ясно и безоблачно+24°C49 %717 мм0.8 м/с2 %
    08:00Ясно и безоблачно+29°C39 %718 мм0.0 м/с2 %
    11:00Ясно и безоблачно+34°C21 %718 мм1.2 м/с2 %
    14:00Ясно и безоблачно+38°C15 %717 мм2.1 м/с2 %
    17:00Ясно и безоблачно+38°C15 %717 мм2.6 м/с2 %
    20:00Ясно и безоблачно+34°C21 %717 мм2.5 м/с2 %
    23:00Ясно и безоблачно+30°C27 %716 мм2.4 м/с2 %
  • 23июля
    Вторник
    +24°
    +39°
    Ясно и безоблачно
    ВремяПогодаТемператураВлажностьДавлениеВетер, м/сВероятность осадков
    02:00Практически безоблачно+26°C30 %716 мм1.5 м/с2 %
    05:00Ясно и безоблачно+24°C34 %716 мм0.5 м/с2 %
    08:00Ясно и безоблачно+27°C34 %717 мм0.8 м/с2 %
    11:00Небольшая облачность+34°C18 %717 мм1.0 м/с2 %
    14:00Ясно и безоблачно+37°C16 %716 мм1.8 м/с2 %
    17:00Ясно и безоблачно+38°C15 %716 мм1.7 м/с2 %
    20:00Ясно и безоблачно+35°C22 %716 мм2.1 м/с2 %
    23:00Ясно и безоблачно+30°C30 %716 мм0.9 м/с2 %
  • 24июля
    Среда
    +25°
    +39°
    Ясно и безоблачно
    ВремяПогодаТемператураВлажностьДавлениеВетер, м/сВероятность осадков
    02:00Ясно и безоблачно+27°C42 %715 мм1.3 м/с2 %
    05:00Ясно и безоблачно+25°C43 %715 мм0.9 м/с2 %
    08:00Ясно и безоблачно+31°C32 %716 мм0.7 м/с2 %
    11:00Ясно и безоблачно+36°C20 %716 мм0.9 м/с2 %
    14:00Ясно и безоблачно+39°C16 %715 мм0.9 м/с2 %
    17:00Ясно и безоблачно+39°C15 %714 мм1.3 м/с2 %
    20:00Ясно и безоблачно+36°C22 %714 мм0.7 м/с2 %
    23:00Ясно и безоблачно+32°C22 %714 мм1.3 м/с2 %
  • 25июля
    Четверг
    +26°
    +41°
    Ясно и безоблачно
    ВремяПогодаТемператураВлажностьДавлениеВетер, м/сВероятность осадков
    02:00Ясно и безоблачно+28°C35 %713 мм1.4 м/с2 %
    05:00Ясно и безоблачно+26°C42 %714 мм0.7 м/с2 %
    08:00Ясно и безоблачно+31°C32 %715 мм0.4 м/с2 %
    11:00Ясно и безоблачно+37°C17 %715 мм0.2 м/с2 %
    14:00Ясно и безоблачно+40°C13 %715 мм1.0 м/с2 %
    17:00Ясно и безоблачно+40°C12 %714 мм1.7 м/с2 %
    20:00Ясно и безоблачно+36°C17 %715 мм1.3 м/с2 %
    23:00Ясно и безоблачно+32°C21 %714 мм1.6 м/с2 %
Мы используем cookies
Соглашаюсь